sensor_id;sensor_type;location;lat;lon;timestamp;P1;durP1;ratioP1;P2;durP2;ratioP2
84523;SDS011;74765;44.538;18.668;2023-12-14T00:01:27;23.35;;;12.15;;
84523;SDS011;74765;44.538;18.668;2023-12-14T00:03:53;18.40;;;11.63;;
84523;SDS011;74765;44.538;18.668;2023-12-14T00:06:19;18.75;;;11.90;;
84523;SDS011;74765;44.538;18.668;2023-12-14T00:09:03;26.52;;;13.43;;
84523;SDS011;74765;44.538;18.668;2023-12-14T00:11:30;23.92;;;14.88;;
84523;SDS011;74765;44.538;18.668;2023-12-14T00:13:56;40.15;;;21.63;;
84523;SDS011;74765;44.538;18.668;2023-12-14T00:16:22;50.40;;;26.42;;
84523;SDS011;74765;44.538;18.668;2023-12-14T00:18:47;48.53;;;27.52;;
84523;SDS011;74765;44.538;18.668;2023-12-14T00:21:13;51.70;;;29.40;;
84523;SDS011;74765;44.538;18.668;2023-12-14T00:23:39;22.65;;;13.50;;
84523;SDS011;74765;44.538;18.668;2023-12-14T00:26:05;23.75;;;12.48;;
84523;SDS011;74765;44.538;18.668;2023-12-14T00:28:31;47.00;;;22.25;;
84523;SDS011;74765;44.538;18.668;2023-12-14T00:30:57;44.50;;;22.20;;
84523;SDS011;74765;44.538;18.668;2023-12-14T00:33:23;42.35;;;22.88;;
84523;SDS011;74765;44.538;18.668;2023-12-14T00:35:49;56.45;;;25.60;;
84523;SDS011;74765;44.538;18.668;2023-12-14T00:38:17;52.20;;;25.27;;
84523;SDS011;74765;44.538;18.668;2023-12-14T00:40:43;52.83;;;27.13;;
84523;SDS011;74765;44.538;18.668;2023-12-14T00:43:09;39.50;;;21.10;;
84523;SDS011;74765;44.538;18.668;2023-12-14T00:45:34;40.78;;;21.58;;
84523;SDS011;74765;44.538;18.668;2023-12-14T00:48:00;34.70;;;19.88;;
84523;SDS011;74765;44.538;18.668;2023-12-14T00:50:26;35.28;;;18.15;;
84523;SDS011;74765;44.538;18.668;2023-12-14T00:52:52;29.23;;;17.23;;
84523;SDS011;74765;44.538;18.668;2023-12-14T00:55:18;47.40;;;25.65;;
84523;SDS011;74765;44.538;18.668;2023-12-14T00:57:44;48.92;;;22.63;;
84523;SDS011;74765;44.538;18.668;2023-12-14T01:00:09;28.70;;;15.55;;
84523;SDS011;74765;44.538;18.668;2023-12-14T01:02:36;28.83;;;16.13;;
84523;SDS011;74765;44.538;18.668;2023-12-14T01:05:02;25.60;;;15.10;;
84523;SDS011;74765;44.538;18.668;2023-12-14T01:07:28;30.50;;;16.70;;
84523;SDS011;74765;44.538;18.668;2023-12-14T01:09:54;26.27;;;15.52;;
84523;SDS011;74765;44.538;18.668;2023-12-14T01:12:20;25.58;;;14.18;;
84523;SDS011;74765;44.538;18.668;2023-12-14T01:14:46;32.13;;;17.98;;
84523;SDS011;74765;44.538;18.668;2023-12-14T01:17:12;34.90;;;18.63;;
84523;SDS011;74765;44.538;18.668;2023-12-14T01:19:40;18.20;;;11.60;;
84523;SDS011;74765;44.538;18.668;2023-12-14T01:22:06;15.23;;;8.50;;
84523;SDS011;74765;44.538;18.668;2023-12-14T01:24:32;21.90;;;10.85;;
84523;SDS011;74765;44.538;18.668;2023-12-14T01:26:58;16.65;;;9.98;;
84523;SDS011;74765;44.538;18.668;2023-12-14T01:29:24;13.80;;;7.07;;
84523;SDS011;74765;44.538;18.668;2023-12-14T01:31:49;20.30;;;11.68;;
84523;SDS011;74765;44.538;18.668;2023-12-14T01:34:15;22.60;;;12.02;;
84523;SDS011;74765;44.538;18.668;2023-12-14T01:36:41;15.48;;;8.27;;
84523;SDS011;74765;44.538;18.668;2023-12-14T01:39:07;13.60;;;8.23;;
84523;SDS011;74765;44.538;18.668;2023-12-14T01:41:33;16.52;;;9.20;;
84523;SDS011;74765;44.538;18.668;2023-12-14T01:43:59;14.88;;;8.00;;
84523;SDS011;74765;44.538;18.668;2023-12-14T01:46:25;23.27;;;10.25;;
84523;SDS011;74765;44.538;18.668;2023-12-14T01:48:51;14.02;;;7.70;;
84523;SDS011;74765;44.538;18.668;2023-12-14T01:51:18;13.82;;;7.47;;
84523;SDS011;74765;44.538;18.668;2023-12-14T01:53:44;22.40;;;10.40;;
84523;SDS011;74765;44.538;18.668;2023-12-14T01:56:10;15.23;;;7.97;;
84523;SDS011;74765;44.538;18.668;2023-12-14T01:58:36;17.77;;;10.68;;
84523;SDS011;74765;44.538;18.668;2023-12-14T02:03:30;15.95;;;8.13;;
84523;SDS011;74765;44.538;18.668;2023-12-14T02:05:56;14.82;;;7.97;;
84523;SDS011;74765;44.538;18.668;2023-12-14T02:08:23;14.25;;;6.53;;
84523;SDS011;74765;44.538;18.668;2023-12-14T02:10:50;13.68;;;5.93;;
84523;SDS011;74765;44.538;18.668;2023-12-14T02:13:15;14.88;;;7.68;;
84523;SDS011;74765;44.538;18.668;2023-12-14T02:15:41;10.90;;;5.38;;
84523;SDS011;74765;44.538;18.668;2023-12-14T02:18:07;10.43;;;5.13;;
84523;SDS011;74765;44.538;18.668;2023-12-14T02:20:33;12.20;;;5.65;;
84523;SDS011;74765;44.538;18.668;2023-12-14T02:22:59;22.85;;;10.55;;
84523;SDS011;74765;44.538;18.668;2023-12-14T02:25:27;15.77;;;7.78;;
84523;SDS011;74765;44.538;18.668;2023-12-14T02:27:52;20.10;;;9.45;;
84523;SDS011;74765;44.538;18.668;2023-12-14T02:30:18;18.23;;;8.20;;
84523;SDS011;74765;44.538;18.668;2023-12-14T02:32:44;20.27;;;10.02;;
84523;SDS011;74765;44.538;18.668;2023-12-14T02:35:10;13.07;;;6.63;;
84523;SDS011;74765;44.538;18.668;2023-12-14T02:37:36;10.60;;;4.35;;
84523;SDS011;74765;44.538;18.668;2023-12-14T02:40:03;11.80;;;6.25;;
84523;SDS011;74765;44.538;18.668;2023-12-14T02:42:30;10.98;;;5.57;;
84523;SDS011;74765;44.538;18.668;2023-12-14T02:44:56;14.32;;;6.95;;
84523;SDS011;74765;44.538;18.668;2023-12-14T02:47:22;19.27;;;9.25;;
84523;SDS011;74765;44.538;18.668;2023-12-14T02:49:48;22.27;;;11.73;;
84523;SDS011;74765;44.538;18.668;2023-12-14T02:52:14;18.65;;;8.45;;
84523;SDS011;74765;44.538;18.668;2023-12-14T02:54:40;14.40;;;8.18;;
84523;SDS011;74765;44.538;18.668;2023-12-14T02:57:06;14.50;;;7.38;;
84523;SDS011;74765;44.538;18.668;2023-12-14T02:59:32;18.48;;;10.27;;
84523;SDS011;74765;44.538;18.668;2023-12-14T03:01:58;21.20;;;11.43;;
84523;SDS011;74765;44.538;18.668;2023-12-14T03:04:24;23.02;;;12.18;;
84523;SDS011;74765;44.538;18.668;2023-12-14T03:06:49;19.33;;;9.65;;
84523;SDS011;74765;44.538;18.668;2023-12-14T03:09:15;18.40;;;10.15;;
84523;SDS011;74765;44.538;18.668;2023-12-14T03:11:41;21.85;;;11.63;;
84523;SDS011;74765;44.538;18.668;2023-12-14T03:14:07;16.15;;;10.10;;
84523;SDS011;74765;44.538;18.668;2023-12-14T03:16:33;17.48;;;9.60;;
84523;SDS011;74765;44.538;18.668;2023-12-14T03:19:00;18.67;;;9.85;;
84523;SDS011;74765;44.538;18.668;2023-12-14T03:21:26;17.10;;;9.07;;
84523;SDS011;74765;44.538;18.668;2023-12-14T03:23:52;26.90;;;13.60;;
84523;SDS011;74765;44.538;18.668;2023-12-14T03:26:18;15.70;;;10.77;;
84523;SDS011;74765;44.538;18.668;2023-12-14T03:28:44;16.70;;;9.90;;
84523;SDS011;74765;44.538;18.668;2023-12-14T03:31:10;21.30;;;12.57;;
84523;SDS011;74765;44.538;18.668;2023-12-14T03:33:37;21.60;;;11.93;;
84523;SDS011;74765;44.538;18.668;2023-12-14T03:36:03;20.02;;;10.55;;
84523;SDS011;74765;44.538;18.668;2023-12-14T03:38:29;18.52;;;10.88;;
84523;SDS011;74765;44.538;18.668;2023-12-14T03:40:55;16.33;;;9.32;;
84523;SDS011;74765;44.538;18.668;2023-12-14T03:43:21;18.63;;;11.13;;
84523;SDS011;74765;44.538;18.668;2023-12-14T03:45:47;18.00;;;9.75;;
84523;SDS011;74765;44.538;18.668;2023-12-14T03:48:13;26.90;;;14.10;;
84523;SDS011;74765;44.538;18.668;2023-12-14T03:50:42;16.58;;;9.93;;
84523;SDS011;74765;44.538;18.668;2023-12-14T03:53:07;16.92;;;11.10;;
84523;SDS011;74765;44.538;18.668;2023-12-14T03:55:33;20.67;;;12.07;;
84523;SDS011;74765;44.538;18.668;2023-12-14T03:57:59;20.27;;;12.40;;
84523;SDS011;74765;44.538;18.668;2023-12-14T04:00:25;18.65;;;10.88;;
84523;SDS011;74765;44.538;18.668;2023-12-14T04:02:51;19.70;;;12.75;;
84523;SDS011;74765;44.538;18.668;2023-12-14T04:05:17;21.08;;;11.95;;
84523;SDS011;74765;44.538;18.668;2023-12-14T04:07:43;19.60;;;10.77;;
84523;SDS011;74765;44.538;18.668;2023-12-14T04:10:10;14.85;;;9.55;;
84523;SDS011;74765;44.538;18.668;2023-12-14T04:12:36;13.20;;;7.65;;
84523;SDS011;74765;44.538;18.668;2023-12-14T04:15:06;13.40;;;8.18;;
84523;SDS011;74765;44.538;18.668;2023-12-14T04:17:34;15.43;;;9.77;;
84523;SDS011;74765;44.538;18.668;2023-12-14T04:20:00;16.08;;;9.85;;
84523;SDS011;74765;44.538;18.668;2023-12-14T04:22:28;15.82;;;10.40;;
84523;SDS011;74765;44.538;18.668;2023-12-14T04:24:54;16.98;;;9.85;;
84523;SDS011;74765;44.538;18.668;2023-12-14T04:27:20;22.38;;;12.98;;
84523;SDS011;74765;44.538;18.668;2023-12-14T04:29:46;22.45;;;11.75;;
84523;SDS011;74765;44.538;18.668;2023-12-14T04:32:12;19.25;;;11.52;;
84523;SDS011;74765;44.538;18.668;2023-12-14T04:34:38;19.83;;;12.00;;
84523;SDS011;74765;44.538;18.668;2023-12-14T04:37:03;18.02;;;10.80;;
84523;SDS011;74765;44.538;18.668;2023-12-14T04:39:29;16.65;;;11.00;;
84523;SDS011;74765;44.538;18.668;2023-12-14T04:41:55;22.20;;;12.05;;
84523;SDS011;74765;44.538;18.668;2023-12-14T04:44:21;19.88;;;11.73;;
84523;SDS011;74765;44.538;18.668;2023-12-14T04:46:47;23.45;;;13.98;;
84523;SDS011;74765;44.538;18.668;2023-12-14T04:49:14;21.63;;;11.20;;
84523;SDS011;74765;44.538;18.668;2023-12-14T04:51:40;15.75;;;10.73;;
84523;SDS011;74765;44.538;18.668;2023-12-14T04:54:05;20.90;;;12.80;;
84523;SDS011;74765;44.538;18.668;2023-12-14T04:56:31;16.48;;;10.65;;
84523;SDS011;74765;44.538;18.668;2023-12-14T04:58:57;16.92;;;11.32;;
84523;SDS011;74765;44.538;18.668;2023-12-14T05:01:24;17.63;;;10.52;;
84523;SDS011;74765;44.538;18.668;2023-12-14T05:03:52;26.50;;;15.40;;
84523;SDS011;74765;44.538;18.668;2023-12-14T05:06:18;34.58;;;17.45;;
84523;SDS011;74765;44.538;18.668;2023-12-14T05:08:44;23.13;;;14.88;;
84523;SDS011;74765;44.538;18.668;2023-12-14T05:11:12;58.55;;;27.60;;
84523;SDS011;74765;44.538;18.668;2023-12-14T05:13:38;23.17;;;13.80;;
84523;SDS011;74765;44.538;18.668;2023-12-14T05:16:04;33.90;;;16.00;;
84523;SDS011;74765;44.538;18.668;2023-12-14T05:18:30;31.23;;;16.92;;
84523;SDS011;74765;44.538;18.668;2023-12-14T05:20:56;33.00;;;18.60;;
84523;SDS011;74765;44.538;18.668;2023-12-14T05:23:22;28.27;;;17.40;;
84523;SDS011;74765;44.538;18.668;2023-12-14T05:25:49;35.13;;;20.48;;
84523;SDS011;74765;44.538;18.668;2023-12-14T05:28:15;30.38;;;17.27;;
84523;SDS011;74765;44.538;18.668;2023-12-14T05:30:41;28.15;;;15.80;;
84523;SDS011;74765;44.538;18.668;2023-12-14T05:33:07;28.02;;;13.60;;
84523;SDS011;74765;44.538;18.668;2023-12-14T05:35:33;30.25;;;17.58;;
84523;SDS011;74765;44.538;18.668;2023-12-14T05:37:59;25.30;;;15.85;;
84523;SDS011;74765;44.538;18.668;2023-12-14T05:40:24;25.15;;;17.35;;
84523;SDS011;74765;44.538;18.668;2023-12-14T05:42:50;21.50;;;13.80;;
84523;SDS011;74765;44.538;18.668;2023-12-14T05:45:16;22.33;;;15.40;;
84523;SDS011;74765;44.538;18.668;2023-12-14T05:47:44;22.20;;;15.50;;
84523;SDS011;74765;44.538;18.668;2023-12-14T05:50:10;33.88;;;21.13;;
84523;SDS011;74765;44.538;18.668;2023-12-14T05:52:36;28.67;;;18.52;;
84523;SDS011;74765;44.538;18.668;2023-12-14T05:55:09;20.85;;;12.95;;
84523;SDS011;74765;44.538;18.668;2023-12-14T05:57:38;25.05;;;15.38;;
84523;SDS011;74765;44.538;18.668;2023-12-14T06:00:04;37.55;;;22.77;;
84523;SDS011;74765;44.538;18.668;2023-12-14T06:02:32;32.50;;;20.20;;
84523;SDS011;74765;44.538;18.668;2023-12-14T06:04:59;39.25;;;21.13;;
84523;SDS011;74765;44.538;18.668;2023-12-14T06:07:25;38.80;;;22.73;;
84523;SDS011;74765;44.538;18.668;2023-12-14T06:09:51;40.05;;;22.45;;
84523;SDS011;74765;44.538;18.668;2023-12-14T06:12:17;52.47;;;27.83;;
84523;SDS011;74765;44.538;18.668;2023-12-14T06:14:43;96.97;;;49.38;;
84523;SDS011;74765;44.538;18.668;2023-12-14T06:17:10;88.40;;;46.30;;
84523;SDS011;74765;44.538;18.668;2023-12-14T06:19:36;76.20;;;41.97;;
84523;SDS011;74765;44.538;18.668;2023-12-14T06:22:03;85.88;;;46.78;;
84523;SDS011;74765;44.538;18.668;2023-12-14T06:24:30;100.65;;;53.25;;
84523;SDS011;74765;44.538;18.668;2023-12-14T06:26:56;100.78;;;53.05;;
84523;SDS011;74765;44.538;18.668;2023-12-14T06:29:22;80.80;;;45.53;;
84523;SDS011;74765;44.538;18.668;2023-12-14T06:31:49;96.18;;;49.00;;
84523;SDS011;74765;44.538;18.668;2023-12-14T06:34:15;90.97;;;47.05;;
84523;SDS011;74765;44.538;18.668;2023-12-14T06:36:41;92.47;;;48.40;;
84523;SDS011;74765;44.538;18.668;2023-12-14T06:39:09;80.35;;;44.20;;
84523;SDS011;74765;44.538;18.668;2023-12-14T06:41:36;71.88;;;39.50;;
84523;SDS011;74765;44.538;18.668;2023-12-14T06:44:02;54.15;;;27.50;;
84523;SDS011;74765;44.538;18.668;2023-12-14T06:46:35;38.72;;;22.67;;
84523;SDS011;74765;44.538;18.668;2023-12-14T06:49:03;50.33;;;27.27;;
84523;SDS011;74765;44.538;18.668;2023-12-14T06:51:29;59.20;;;31.90;;
84523;SDS011;74765;44.538;18.668;2023-12-14T06:53:55;62.60;;;33.05;;
84523;SDS011;74765;44.538;18.668;2023-12-14T06:56:21;68.60;;;36.33;;
84523;SDS011;74765;44.538;18.668;2023-12-14T06:58:47;69.07;;;37.95;;
84523;SDS011;74765;44.538;18.668;2023-12-14T07:01:15;76.40;;;42.17;;
84523;SDS011;74765;44.538;18.668;2023-12-14T07:03:43;78.65;;;39.53;;
84523;SDS011;74765;44.538;18.668;2023-12-14T07:06:13;66.05;;;35.78;;
84523;SDS011;74765;44.538;18.668;2023-12-14T07:08:40;82.80;;;42.75;;
84523;SDS011;74765;44.538;18.668;2023-12-14T07:11:08;94.80;;;46.60;;
84523;SDS011;74765;44.538;18.668;2023-12-14T07:13:35;102.47;;;49.10;;
84523;SDS011;74765;44.538;18.668;2023-12-14T07:16:05;123.07;;;60.63;;
84523;SDS011;74765;44.538;18.668;2023-12-14T07:18:36;123.75;;;67.53;;
84523;SDS011;74765;44.538;18.668;2023-12-14T07:21:03;131.45;;;74.20;;
84523;SDS011;74765;44.538;18.668;2023-12-14T07:23:30;136.57;;;81.82;;
84523;SDS011;74765;44.538;18.668;2023-12-14T07:26:00;129.52;;;82.40;;
84523;SDS011;74765;44.538;18.668;2023-12-14T07:28:26;125.90;;;70.93;;
84523;SDS011;74765;44.538;18.668;2023-12-14T07:30:55;123.65;;;71.40;;
84523;SDS011;74765;44.538;18.668;2023-12-14T07:33:31;103.60;;;60.42;;
84523;SDS011;74765;44.538;18.668;2023-12-14T07:36:01;112.35;;;62.05;;
84523;SDS011;74765;44.538;18.668;2023-12-14T07:38:30;65.15;;;33.88;;
84523;SDS011;74765;44.538;18.668;2023-12-14T07:40:56;62.58;;;30.88;;
84523;SDS011;74765;44.538;18.668;2023-12-14T07:43:23;58.97;;;30.80;;
84523;SDS011;74765;44.538;18.668;2023-12-14T07:45:50;60.13;;;29.80;;
84523;SDS011;74765;44.538;18.668;2023-12-14T07:48:21;52.97;;;24.02;;
84523;SDS011;74765;44.538;18.668;2023-12-14T07:50:56;42.42;;;19.50;;
84523;SDS011;74765;44.538;18.668;2023-12-14T07:53:22;48.03;;;18.92;;
84523;SDS011;74765;44.538;18.668;2023-12-14T07:55:55;43.97;;;19.70;;
84523;SDS011;74765;44.538;18.668;2023-12-14T07:58:22;39.55;;;17.23;;
84523;SDS011;74765;44.538;18.668;2023-12-14T08:00:48;42.60;;;19.13;;
84523;SDS011;74765;44.538;18.668;2023-12-14T08:03:47;42.05;;;19.67;;
84523;SDS011;74765;44.538;18.668;2023-12-14T08:06:23;46.08;;;18.27;;
84523;SDS011;74765;44.538;18.668;2023-12-14T08:09:46;44.97;;;22.77;;
84523;SDS011;74765;44.538;18.668;2023-12-14T08:12:13;43.72;;;19.95;;
84523;SDS011;74765;44.538;18.668;2023-12-14T08:14:49;45.17;;;21.60;;
84523;SDS011;74765;44.538;18.668;2023-12-14T08:17:15;43.38;;;20.92;;
84523;SDS011;74765;44.538;18.668;2023-12-14T08:19:42;36.72;;;17.42;;
84523;SDS011;74765;44.538;18.668;2023-12-14T08:22:09;30.63;;;14.93;;
84523;SDS011;74765;44.538;18.668;2023-12-14T08:24:42;31.45;;;15.77;;
84523;SDS011;74765;44.538;18.668;2023-12-14T08:27:14;32.97;;;15.70;;
84523;SDS011;74765;44.538;18.668;2023-12-14T08:29:40;27.80;;;14.95;;
84523;SDS011;74765;44.538;18.668;2023-12-14T08:32:06;26.85;;;14.48;;
84523;SDS011;74765;44.538;18.668;2023-12-14T08:34:32;31.20;;;15.55;;
84523;SDS011;74765;44.538;18.668;2023-12-14T08:37:01;27.88;;;14.73;;
84523;SDS011;74765;44.538;18.668;2023-12-14T08:41:53;25.52;;;13.13;;
84523;SDS011;74765;44.538;18.668;2023-12-14T08:44:22;23.08;;;12.95;;
84523;SDS011;74765;44.538;18.668;2023-12-14T08:46:55;20.50;;;11.68;;
84523;SDS011;74765;44.538;18.668;2023-12-14T08:49:24;23.88;;;12.90;;
84523;SDS011;74765;44.538;18.668;2023-12-14T08:51:51;21.65;;;12.90;;
84523;SDS011;74765;44.538;18.668;2023-12-14T08:54:20;25.05;;;13.00;;
84523;SDS011;74765;44.538;18.668;2023-12-14T08:56:46;24.48;;;12.60;;
84523;SDS011;74765;44.538;18.668;2023-12-14T08:59:16;24.58;;;13.25;;
84523;SDS011;74765;44.538;18.668;2023-12-14T09:01:42;22.83;;;12.02;;
84523;SDS011;74765;44.538;18.668;2023-12-14T09:04:08;25.70;;;16.95;;
84523;SDS011;74765;44.538;18.668;2023-12-14T09:06:38;22.58;;;12.45;;
84523;SDS011;74765;44.538;18.668;2023-12-14T09:09:07;28.80;;;16.83;;
84523;SDS011;74765;44.538;18.668;2023-12-14T09:11:33;26.63;;;14.85;;
84523;SDS011;74765;44.538;18.668;2023-12-14T09:14:17;25.85;;;15.02;;
84523;SDS011;74765;44.538;18.668;2023-12-14T09:16:46;22.20;;;13.23;;
84523;SDS011;74765;44.538;18.668;2023-12-14T09:19:14;24.70;;;14.07;;
84523;SDS011;74765;44.538;18.668;2023-12-14T09:21:40;26.85;;;14.77;;
84523;SDS011;74765;44.538;18.668;2023-12-14T09:24:07;22.92;;;14.77;;
84523;SDS011;74765;44.538;18.668;2023-12-14T09:26:35;26.73;;;16.08;;
84523;SDS011;74765;44.538;18.668;2023-12-14T09:29:01;34.97;;;19.73;;
84523;SDS011;74765;44.538;18.668;2023-12-14T09:31:40;39.55;;;21.58;;
84523;SDS011;74765;44.538;18.668;2023-12-14T09:34:46;33.08;;;18.63;;
84523;SDS011;74765;44.538;18.668;2023-12-14T09:39:45;29.27;;;17.20;;
84523;SDS011;74765;44.538;18.668;2023-12-14T09:42:19;35.00;;;18.13;;
84523;SDS011;74765;44.538;18.668;2023-12-14T09:44:52;28.48;;;16.15;;
84523;SDS011;74765;44.538;18.668;2023-12-14T09:49:45;26.50;;;15.68;;
84523;SDS011;74765;44.538;18.668;2023-12-14T09:52:26;26.20;;;15.25;;
84523;SDS011;74765;44.538;18.668;2023-12-14T09:55:00;30.73;;;16.50;;
84523;SDS011;74765;44.538;18.668;2023-12-14T09:57:29;29.90;;;16.60;;
84523;SDS011;74765;44.538;18.668;2023-12-14T09:59:55;36.67;;;19.67;;
84523;SDS011;74765;44.538;18.668;2023-12-14T10:02:36;39.28;;;21.75;;
84523;SDS011;74765;44.538;18.668;2023-12-14T10:05:22;35.13;;;22.48;;
84523;SDS011;74765;44.538;18.668;2023-12-14T10:07:56;37.17;;;23.50;;
84523;SDS011;74765;44.538;18.668;2023-12-14T10:10:22;45.22;;;33.70;;
84523;SDS011;74765;44.538;18.668;2023-12-14T10:12:57;48.25;;;30.95;;
84523;SDS011;74765;44.538;18.668;2023-12-14T10:15:29;45.33;;;31.05;;
84523;SDS011;74765;44.538;18.668;2023-12-14T10:18:05;41.30;;;27.55;;
84523;SDS011;74765;44.538;18.668;2023-12-14T10:20:32;38.30;;;24.25;;
84523;SDS011;74765;44.538;18.668;2023-12-14T10:22:58;30.98;;;19.25;;
84523;SDS011;74765;44.538;18.668;2023-12-14T10:25:33;41.60;;;22.73;;
84523;SDS011;74765;44.538;18.668;2023-12-14T10:28:01;50.42;;;26.83;;
84523;SDS011;74765;44.538;18.668;2023-12-14T10:30:28;52.67;;;28.05;;
84523;SDS011;74765;44.538;18.668;2023-12-14T10:32:54;36.63;;;21.60;;
84523;SDS011;74765;44.538;18.668;2023-12-14T10:35:29;36.78;;;20.63;;
84523;SDS011;74765;44.538;18.668;2023-12-14T10:38:01;22.00;;;15.03;;
84523;SDS011;74765;44.538;18.668;2023-12-14T10:40:30;4.70;;;2.97;;
84523;SDS011;74765;44.538;18.668;2023-12-14T10:42:58;8.00;;;5.25;;
84523;SDS011;74765;44.538;18.668;2023-12-14T10:45:33;11.95;;;6.25;;
84523;SDS011;74765;44.538;18.668;2023-12-14T10:48:10;9.80;;;5.32;;
84523;SDS011;74765;44.538;18.668;2023-12-14T10:51:11;12.25;;;6.60;;
84523;SDS011;74765;44.538;18.668;2023-12-14T10:53:38;9.43;;;5.50;;
84523;SDS011;74765;44.538;18.668;2023-12-14T10:56:16;7.53;;;4.50;;
84523;SDS011;74765;44.538;18.668;2023-12-14T10:58:53;5.05;;;3.33;;
84523;SDS011;74765;44.538;18.668;2023-12-14T11:01:25;7.45;;;4.28;;
84523;SDS011;74765;44.538;18.668;2023-12-14T11:04:00;11.43;;;6.38;;
84523;SDS011;74765;44.538;18.668;2023-12-14T11:06:50;15.30;;;7.70;;
84523;SDS011;74765;44.538;18.668;2023-12-14T11:09:29;19.42;;;8.20;;
84523;SDS011;74765;44.538;18.668;2023-12-14T11:12:19;16.90;;;8.73;;
84523;SDS011;74765;44.538;18.668;2023-12-14T11:15:08;15.63;;;8.75;;
84523;SDS011;74765;44.538;18.668;2023-12-14T11:23:13;8.10;;;5.07;;
84523;SDS011;74765;44.538;18.668;2023-12-14T11:25:48;10.00;;;5.70;;
84523;SDS011;74765;44.538;18.668;2023-12-14T11:28:15;11.82;;;6.85;;
84523;SDS011;74765;44.538;18.668;2023-12-14T11:30:49;10.82;;;6.88;;
84523;SDS011;74765;44.538;18.668;2023-12-14T11:33:16;7.63;;;4.60;;
84523;SDS011;74765;44.538;18.668;2023-12-14T11:35:44;8.97;;;5.63;;
84523;SDS011;74765;44.538;18.668;2023-12-14T11:38:10;10.30;;;5.68;;
84523;SDS011;74765;44.538;18.668;2023-12-14T11:41:01;17.70;;;9.82;;
84523;SDS011;74765;44.538;18.668;2023-12-14T11:47:02;13.63;;;8.27;;
84523;SDS011;74765;44.538;18.668;2023-12-14T11:49:36;10.20;;;6.43;;
84523;SDS011;74765;44.538;18.668;2023-12-14T11:52:02;13.32;;;8.05;;
84523;SDS011;74765;44.538;18.668;2023-12-14T11:54:38;15.98;;;10.60;;
84523;SDS011;74765;44.538;18.668;2023-12-14T11:57:33;16.20;;;9.60;;
84523;SDS011;74765;44.538;18.668;2023-12-14T11:59:59;14.98;;;9.95;;
84523;SDS011;74765;44.538;18.668;2023-12-14T12:02:25;16.80;;;9.95;;
84523;SDS011;74765;44.538;18.668;2023-12-14T12:04:51;15.60;;;9.80;;
84523;SDS011;74765;44.538;18.668;2023-12-14T12:07:18;26.75;;;12.82;;
84523;SDS011;74765;44.538;18.668;2023-12-14T12:09:44;15.52;;;9.88;;
84523;SDS011;74765;44.538;18.668;2023-12-14T12:12:13;50.65;;;24.30;;
84523;SDS011;74765;44.538;18.668;2023-12-14T12:14:52;22.35;;;12.75;;
84523;SDS011;74765;44.538;18.668;2023-12-14T12:17:24;15.93;;;9.82;;
84523;SDS011;74765;44.538;18.668;2023-12-14T12:19:59;14.48;;;9.27;;
84523;SDS011;74765;44.538;18.668;2023-12-14T12:22:34;10.35;;;7.07;;
84523;SDS011;74765;44.538;18.668;2023-12-14T12:25:02;15.52;;;11.10;;
84523;SDS011;74765;44.538;18.668;2023-12-14T12:27:33;17.52;;;11.60;;
84523;SDS011;74765;44.538;18.668;2023-12-14T12:30:04;22.20;;;13.45;;
84523;SDS011;74765;44.538;18.668;2023-12-14T12:32:31;17.97;;;10.30;;
84523;SDS011;74765;44.538;18.668;2023-12-14T12:35:00;13.20;;;8.05;;
84523;SDS011;74765;44.538;18.668;2023-12-14T12:37:30;13.80;;;8.40;;
84523;SDS011;74765;44.538;18.668;2023-12-14T12:40:14;11.30;;;7.07;;
84523;SDS011;74765;44.538;18.668;2023-12-14T12:43:20;11.50;;;7.50;;
84523;SDS011;74765;44.538;18.668;2023-12-14T12:45:49;10.50;;;6.97;;
84523;SDS011;74765;44.538;18.668;2023-12-14T12:48:36;13.60;;;7.57;;
84523;SDS011;74765;44.538;18.668;2023-12-14T12:51:02;11.02;;;7.55;;
84523;SDS011;74765;44.538;18.668;2023-12-14T12:53:29;17.05;;;8.55;;
84523;SDS011;74765;44.538;18.668;2023-12-14T12:56:01;13.48;;;8.80;;
84523;SDS011;74765;44.538;18.668;2023-12-14T12:58:30;12.13;;;8.13;;
84523;SDS011;74765;44.538;18.668;2023-12-14T13:00:56;14.02;;;7.65;;
84523;SDS011;74765;44.538;18.668;2023-12-14T13:03:25;13.77;;;9.43;;
84523;SDS011;74765;44.538;18.668;2023-12-14T13:06:01;12.73;;;8.45;;
84523;SDS011;74765;44.538;18.668;2023-12-14T13:08:31;16.10;;;10.05;;
84523;SDS011;74765;44.538;18.668;2023-12-14T13:10:58;26.48;;;15.18;;
84523;SDS011;74765;44.538;18.668;2023-12-14T13:13:23;17.20;;;10.70;;
84523;SDS011;74765;44.538;18.668;2023-12-14T13:15:49;16.98;;;11.18;;
84523;SDS011;74765;44.538;18.668;2023-12-14T13:18:15;17.48;;;9.98;;
84523;SDS011;74765;44.538;18.668;2023-12-14T13:20:42;17.48;;;11.43;;
84523;SDS011;74765;44.538;18.668;2023-12-14T13:23:08;19.88;;;12.75;;
84523;SDS011;74765;44.538;18.668;2023-12-14T13:25:36;23.33;;;12.82;;
84523;SDS011;74765;44.538;18.668;2023-12-14T13:28:02;22.00;;;12.85;;
84523;SDS011;74765;44.538;18.668;2023-12-14T13:30:30;18.90;;;11.18;;
84523;SDS011;74765;44.538;18.668;2023-12-14T13:32:56;21.52;;;11.32;;
84523;SDS011;74765;44.538;18.668;2023-12-14T13:35:22;21.08;;;12.70;;
84523;SDS011;74765;44.538;18.668;2023-12-14T13:37:50;22.92;;;14.02;;
84523;SDS011;74765;44.538;18.668;2023-12-14T13:40:16;22.88;;;13.57;;
84523;SDS011;74765;44.538;18.668;2023-12-14T13:42:46;21.63;;;13.50;;
84523;SDS011;74765;44.538;18.668;2023-12-14T13:45:14;17.50;;;11.57;;
84523;SDS011;74765;44.538;18.668;2023-12-14T13:47:43;21.67;;;12.93;;
84523;SDS011;74765;44.538;18.668;2023-12-14T13:50:09;21.30;;;14.20;;
84523;SDS011;74765;44.538;18.668;2023-12-14T13:52:58;23.27;;;13.05;;
84523;SDS011;74765;44.538;18.668;2023-12-14T13:55:24;21.10;;;13.52;;
84523;SDS011;74765;44.538;18.668;2023-12-14T14:00:37;23.88;;;15.35;;
84523;SDS011;74765;44.538;18.668;2023-12-14T14:03:24;33.33;;;19.38;;
84523;SDS011;74765;44.538;18.668;2023-12-14T14:05:55;41.15;;;21.00;;
84523;SDS011;74765;44.538;18.668;2023-12-14T14:08:21;41.08;;;22.88;;
84523;SDS011;74765;44.538;18.668;2023-12-14T14:11:00;34.47;;;19.75;;
84523;SDS011;74765;44.538;18.668;2023-12-14T14:15:53;37.33;;;19.20;;
84523;SDS011;74765;44.538;18.668;2023-12-14T14:18:19;29.65;;;17.95;;
84523;SDS011;74765;44.538;18.668;2023-12-14T14:20:47;33.22;;;16.55;;
84523;SDS011;74765;44.538;18.668;2023-12-14T14:23:13;30.08;;;17.98;;
84523;SDS011;74765;44.538;18.668;2023-12-14T14:25:57;32.58;;;16.75;;
84523;SDS011;74765;44.538;18.668;2023-12-14T14:28:49;27.85;;;16.75;;
84523;SDS011;74765;44.538;18.668;2023-12-14T14:31:15;25.45;;;15.00;;
84523;SDS011;74765;44.538;18.668;2023-12-14T14:33:41;20.95;;;13.15;;
84523;SDS011;74765;44.538;18.668;2023-12-14T14:36:07;24.05;;;14.40;;
84523;SDS011;74765;44.538;18.668;2023-12-14T14:38:34;28.95;;;16.90;;
84523;SDS011;74765;44.538;18.668;2023-12-14T14:41:02;20.10;;;12.53;;
84523;SDS011;74765;44.538;18.668;2023-12-14T14:43:28;20.08;;;11.43;;
84523;SDS011;74765;44.538;18.668;2023-12-14T14:45:57;19.50;;;12.52;;